Time;durP1;ratioP1;P1;durP2;ratioP2;P2;SDS_P1;SDS_P2;PMS_P1;PMS_P2;Temp;Humidity;BMP_temperature;BMP_pressure;BME280_temperature;BME280_humidity;BME280_pressure;Samples;Min_cycle;Max_cycle;Signal;HPM_P1;HPM_P2
2021/12/08 00:00:25;;;;;;;11.45;4.45;;;;;;;4.23;95.87;99218.63;5034423;28;20041;-78
2021/12/08 00:02:51;;;;;;;12.65;4.53;;;;;;;4.25;96.14;99220.44;5027461;28;20033;-78
2021/12/08 00:05:19;;;;;;;11.65;4.55;;;;;;;4.29;96.18;99226.53;5037874;28;20032;-78
2021/12/08 00:07:46;;;;;;;9.25;4.18;;;;;;;4.31;96.52;99214.53;5071866;28;20041;-78
2021/12/08 00:10:17;;;;;;;11.63;4.97;;;;;;;4.32;96.55;99206.84;5033194;28;20025;-78
2021/12/08 00:15:32;;;;;;;13.30;5.00;;;;;;;4.35;96.67;99190.56;5037150;28;20083;-78
2021/12/08 00:17:58;;;;;;;12.73;4.50;;;;;;;4.43;96.51;99195.88;5033207;28;20060;-78
2021/12/08 00:20:26;;;;;;;13.10;4.32;;;;;;;4.43;96.58;99185.56;5034186;28;20076;-78
2021/12/08 00:22:52;;;;;;;11.75;4.53;;;;;;;4.46;97.12;99190.78;5032742;28;20291;-78
2021/12/08 00:25:17;;;;;;;11.70;4.15;;;;;;;4.52;97.04;99194.38;5035981;28;20140;-78
2021/12/08 00:27:42;;;;;;;10.50;4.18;;;;;;;4.55;97.07;99206.47;5036045;28;20041;-78
2021/12/08 00:30:08;;;;;;;10.00;4.07;;;;;;;4.58;97.16;99203.97;5038376;28;20053;-78
2021/12/08 00:32:35;;;;;;;14.02;4.80;;;;;;;4.60;97.33;99207.44;5032718;28;20025;-78
2021/12/08 00:35:01;;;;;;;9.93;3.80;;;;;;;4.64;97.39;99206.66;5034118;28;20023;-78
2021/12/08 00:37:27;;;;;;;10.10;3.67;;;;;;;4.69;96.91;99206.75;5037582;28;20203;-78
2021/12/08 00:39:53;;;;;;;10.20;3.80;;;;;;;4.77;97.26;99188.88;5035694;28;20215;-78
2021/12/08 00:42:19;;;;;;;9.10;3.78;;;;;;;4.79;97.04;99205.22;5068386;28;20043;-78
2021/12/08 00:44:45;;;;;;;8.85;3.75;;;;;;;4.81;96.91;99194.09;5034705;28;20060;-78
2021/12/08 00:47:10;;;;;;;12.20;3.85;;;;;;;4.83;96.86;99195.00;5034821;28;20258;-78
2021/12/08 00:49:37;;;;;;;8.50;3.72;;;;;;;4.85;97.16;99193.34;5035606;28;20307;-78
2021/12/08 00:52:03;;;;;;;6.80;3.30;;;;;;;4.88;96.90;99190.81;5034909;28;20036;-78
2021/12/08 00:54:28;;;;;;;9.20;3.75;;;;;;;4.91;97.04;99186.53;5037287;28;20025;-77
2021/12/08 00:56:54;;;;;;;11.25;3.60;;;;;;;4.97;97.33;99197.88;5029388;28;20029;-78
2021/12/08 00:59:20;;;;;;;10.23;3.47;;;;;;;4.98;96.95;99202.19;5034485;28;20037;-78
2021/12/08 01:01:46;;;;;;;8.48;3.45;;;;;;;4.98;96.71;99225.44;5055168;28;20123;-78
2021/12/08 01:04:11;;;;;;;8.43;3.63;;;;;;;4.97;97.01;99228.84;5032902;28;20026;-78
2021/12/08 01:06:36;;;;;;;10.38;3.97;;;;;;;4.98;96.79;99225.44;5033258;28;20034;-78
2021/12/08 01:09:02;;;;;;;8.60;3.80;;;;;;;4.99;96.84;99231.44;5034255;28;20051;-78
2021/12/08 01:11:28;;;;;;;8.95;3.40;;;;;;;5.03;97.08;99238.41;5027012;28;20030;-78
2021/12/08 01:13:53;;;;;;;9.38;3.17;;;;;;;5.05;97.13;99226.41;5033330;28;20037;-78
2021/12/08 01:16:20;;;;;;;7.40;3.10;;;;;;;5.07;97.02;99234.16;5031558;28;20089;-78
2021/12/08 01:18:46;;;;;;;6.75;3.03;;;;;;;5.10;96.69;99240.28;5031173;28;20030;-78
2021/12/08 01:21:12;;;;;;;7.63;2.78;;;;;;;5.13;96.48;99242.06;5030225;28;20056;-78
2021/12/08 01:23:39;;;;;;;6.90;2.65;;;;;;;5.14;96.67;99238.59;5035809;28;20025;-78
2021/12/08 01:26:06;;;;;;;6.65;2.80;;;;;;;5.18;96.64;99235.25;5034810;28;20089;-78
2021/12/08 01:28:32;;;;;;;8.05;3.03;;;;;;;5.18;96.16;99248.16;5031929;28;20231;-78
2021/12/08 01:31:00;;;;;;;7.68;2.83;;;;;;;5.19;96.05;99242.16;5028740;28;20041;-78
2021/12/08 01:33:27;;;;;;;9.48;4.13;;;;;;;5.19;96.21;99237.00;5036965;28;20207;-78
2021/12/08 01:35:53;;;;;;;9.20;3.33;;;;;;;5.21;96.43;99245.63;5065739;28;20224;-78
2021/12/08 01:38:19;;;;;;;7.25;3.25;;;;;;;5.26;96.57;99256.03;5031886;28;20041;-78
2021/12/08 01:40:45;;;;;;;8.48;3.30;;;;;;;5.25;96.26;99260.34;5034811;28;20056;-78
2021/12/08 01:43:23;;;;;;;9.43;2.83;;;;;;;5.26;96.26;99251.78;5031030;28;20245;-78
2021/12/08 01:46:00;;;;;;;10.80;4.10;;;;;;;5.29;96.31;99248.38;5031590;28;20044;-78
2021/12/08 01:48:28;;;;;;;8.00;3.00;;;;;;;5.29;96.50;99256.13;5062430;28;20022;-78
2021/12/08 01:51:02;;;;;;;7.55;2.88;;;;;;;5.32;96.51;99262.22;5032348;28;20075;-78
2021/12/08 01:53:27;;;;;;;9.45;3.90;;;;;;;5.32;96.38;99266.50;5033116;28;20026;-78
2021/12/08 01:55:53;;;;;;;11.35;3.25;;;;;;;5.35;96.27;99266.56;5034251;28;20195;-78
2021/12/08 01:58:19;;;;;;;8.25;3.08;;;;;;;5.35;96.27;99259.69;5032127;28;20044;-78
2021/12/08 02:00:53;;;;;;;8.82;2.88;;;;;;;5.36;96.26;99271.75;5035471;28;20035;-78
2021/12/08 02:03:21;;;;;;;6.50;2.72;;;;;;;5.38;96.42;99261.47;5035855;28;20045;-78
2021/12/08 02:05:46;;;;;;;8.75;3.05;;;;;;;5.40;96.14;99271.00;5033649;28;20047;-78
2021/12/08 02:08:12;;;;;;;10.30;3.22;;;;;;;5.42;96.04;99267.53;5033522;28;20292;-78
2021/12/08 02:10:38;;;;;;;9.85;3.05;;;;;;;5.43;95.75;99274.44;5034844;28;20017;-78
2021/12/08 02:13:04;;;;;;;11.70;3.30;;;;;;;5.43;95.74;99282.19;5038463;28;20026;-78
2021/12/08 02:15:30;;;;;;;10.85;3.38;;;;;;;5.44;95.25;99287.41;5037475;28;20299;-78
2021/12/08 02:17:56;;;;;;;13.52;3.30;;;;;;;5.47;95.32;99284.00;5038630;28;20060;-78
2021/12/08 02:20:25;;;;;;;9.65;3.28;;;;;;;5.47;94.97;99286.59;5057558;28;20057;-78
2021/12/08 02:22:51;;;;;;;14.18;3.65;;;;;;;5.48;94.83;99291.78;5035090;28;20029;-78
2021/12/08 02:25:20;;;;;;;13.30;3.60;;;;;;;5.50;94.77;99296.97;5039817;28;20087;-78
2021/12/08 02:27:46;;;;;;;8.70;3.17;;;;;;;5.51;94.20;99309.91;5067482;28;20220;-78
2021/12/08 02:30:40;;;;;;;13.32;3.35;;;;;;;5.52;94.20;99314.25;5032806;28;20036;-78
2021/12/08 02:46:51;;;;;;;10.13;3.25;;;;;;;5.51;92.49;99302.16;5034275;28;20029;-78
2021/12/08 02:49:20;;;;;;;10.88;3.50;;;;;;;5.49;92.33;99301.28;5072446;28;20021;-78
2021/12/08 02:51:47;;;;;;;11.73;3.67;;;;;;;5.49;92.47;99315.88;5038610;28;20049;-78
2021/12/08 02:54:13;;;;;;;8.90;3.17;;;;;;;5.46;92.59;99321.00;5036973;28;20030;-78
2021/12/08 02:56:39;;;;;;;8.95;3.15;;;;;;;5.44;92.39;99322.69;5033161;28;20044;-78
2021/12/08 02:59:05;;;;;;;11.13;3.50;;;;;;;5.44;92.30;99322.69;5037068;28;20041;-78
2021/12/08 03:01:31;;;;;;;9.23;3.50;;;;;;;5.43;92.67;99320.94;5039428;28;20037;-78
2021/12/08 03:03:56;;;;;;;10.57;3.15;;;;;;;5.44;92.69;99320.97;5034670;28;20286;-78
2021/12/08 03:06:22;;;;;;;12.30;3.47;;;;;;;5.46;93.02;99318.41;5036198;28;20092;-78
2021/12/08 03:08:48;;;;;;;8.80;2.90;;;;;;;5.46;92.60;99310.66;5038396;28;20029;-78
2021/12/08 03:11:14;;;;;;;9.27;2.95;;;;;;;5.47;92.84;99323.63;5033959;28;20049;-78
2021/12/08 03:13:56;;;;;;;11.73;3.13;;;;;;;5.48;93.32;99320.19;5035296;28;20324;-78
2021/12/08 03:16:22;;;;;;;7.35;2.80;;;;;;;5.49;93.10;99319.38;5040694;28;20063;-78
2021/12/08 03:18:48;;;;;;;10.00;3.38;;;;;;;5.49;93.25;99337.44;5033843;28;20124;-78
2021/12/08 03:21:13;;;;;;;12.75;3.28;;;;;;;5.51;92.96;99325.41;5036618;28;20048;-78
2021/12/08 03:24:06;;;;;;;10.00;3.10;;;;;;;5.52;92.75;99331.47;5032494;28;20169;-78
2021/12/08 03:26:33;;;;;;;8.70;3.63;;;;;;;5.53;92.42;99344.44;5038350;28;20037;-78
2021/12/08 03:29:04;;;;;;;8.75;3.00;;;;;;;5.54;91.59;99334.94;5035758;28;20167;-78
2021/12/08 03:31:36;;;;;;;10.40;2.75;;;;;;;5.56;90.93;99341.00;5033841;28;20346;-78
2021/12/08 03:34:01;;;;;;;11.57;3.08;;;;;;;5.57;90.75;99355.69;5034742;28;20032;-78
2021/12/08 03:36:27;;;;;;;9.18;3.00;;;;;;;5.57;90.47;99350.50;5034367;28;20241;-78
2021/12/08 03:38:52;;;;;;;14.85;2.70;;;;;;;5.54;90.42;99342.69;5037291;28;20029;-78
2021/12/08 03:41:18;;;;;;;8.63;2.75;;;;;;;5.52;89.99;99347.84;5037883;28;20271;-78
2021/12/08 03:43:43;;;;;;;10.50;3.13;;;;;;;5.51;89.77;99340.91;5036720;28;20171;-78
2021/12/08 03:46:12;;;;;;;10.32;2.85;;;;;;;5.50;89.91;99339.16;5039007;28;20096;-78
2021/12/08 03:48:46;;;;;;;16.10;3.15;;;;;;;5.48;89.31;99343.44;5037133;28;20033;-78
2021/12/08 03:51:12;;;;;;;8.23;2.80;;;;;;;5.46;89.56;99346.84;5031769;28;20291;-78
2021/12/08 03:53:38;;;;;;;10.82;3.80;;;;;;;5.44;88.82;99351.13;5034458;28;20034;-78
2021/12/08 03:56:03;;;;;;;11.25;3.30;;;;;;;5.41;88.62;99351.91;5028271;28;20068;-78
2021/12/08 03:58:29;;;;;;;12.35;3.47;;;;;;;5.40;88.20;99355.34;5038826;28;20276;-78
2021/12/08 04:00:57;;;;;;;11.55;3.20;;;;;;;5.37;88.18;99366.50;5033745;28;20323;-78
2021/12/08 04:03:25;;;;;;;9.82;2.53;;;;;;;5.35;87.78;99360.41;5030656;28;20021;-78
2021/12/08 04:06:02;;;;;;;9.23;2.78;;;;;;;5.33;87.84;99354.34;5029922;28;20076;-78
2021/12/08 04:08:34;;;;;;;11.32;2.75;;;;;;;5.30;87.98;99371.47;5033334;28;20029;-78
2021/12/08 04:11:04;;;;;;;9.63;2.58;;;;;;;5.28;88.16;99370.59;5036190;28;20092;-78
2021/12/08 04:13:38;;;;;;;12.98;3.08;;;;;;;5.25;87.74;99367.94;5033115;28;20021;-78
2021/12/08 04:16:05;;;;;;;10.35;3.38;;;;;;;5.19;87.71;99369.53;5032131;28;20132;-78
2021/12/08 04:18:31;;;;;;;12.05;3.10;;;;;;;5.17;87.30;99365.19;5032427;28;20532;-78
2021/12/08 04:20:58;;;;;;;10.48;2.75;;;;;;;5.12;87.14;99372.84;5039135;28;20017;-78
2021/12/08 04:23:26;;;;;;;12.43;2.70;;;;;;;5.10;87.60;99373.63;5030002;28;20017;-78
2021/12/08 04:25:54;;;;;;;10.25;2.80;;;;;;;5.05;88.24;99379.59;5034601;28;20060;-78
2021/12/08 04:28:23;;;;;;;11.02;2.95;;;;;;;5.03;88.09;99386.41;5032465;28;20046;-78
2021/12/08 04:30:51;;;;;;;9.20;2.33;;;;;;;5.01;88.23;99382.03;5034907;28;20030;-78
2021/12/08 04:33:17;;;;;;;10.70;2.63;;;;;;;4.99;88.46;99387.19;5057775;28;20029;-78
2021/12/08 04:35:47;;;;;;;12.63;2.90;;;;;;;4.97;88.89;99398.34;5038579;28;20036;-78
2021/12/08 04:38:20;;;;;;;10.40;2.60;;;;;;;4.96;88.33;99381.94;5034193;28;20044;-78
2021/12/08 04:41:01;;;;;;;12.07;3.15;;;;;;;4.95;88.27;99381.91;5034215;28;20025;-78
2021/12/08 04:43:40;;;;;;;11.05;2.50;;;;;;;4.95;88.04;99389.66;5038298;28;20305;-78
2021/12/08 04:46:39;;;;;;;10.98;2.60;;;;;;;4.95;87.44;99385.34;5032419;28;20025;-78
2021/12/08 04:51:43;;;;;;;9.77;2.13;;;;;;;4.93;87.03;99370.69;5035262;28;20052;-78
2021/12/08 05:03:03;;;;;;;11.48;3.35;;;;;;;4.84;86.72;99402.34;5034509;28;20167;-78
2021/12/08 05:06:00;;;;;;;6.75;1.90;;;;;;;4.81;86.42;99395.38;5031390;28;20120;-77
2021/12/08 05:08:24;;;;;;;9.80;2.38;;;;;;;4.79;86.58;99393.59;5031348;28;20134;-78
2021/12/08 05:10:52;;;;;;;12.27;2.35;;;;;;;4.77;86.17;99411.63;5037012;28;20048;-78
2021/12/08 05:13:19;;;;;;;8.52;2.00;;;;;;;4.77;86.74;99405.59;5035639;28;20220;-78
2021/12/08 05:15:49;;;;;;;10.52;2.00;;;;;;;4.78;86.30;99415.06;5030095;28;20025;-78
2021/12/08 05:18:19;;;;;;;9.30;2.30;;;;;;;4.78;86.72;99417.66;5029451;28;20025;-78
2021/12/08 05:20:49;;;;;;;6.45;2.10;;;;;;;4.81;86.96;99415.16;5028514;28;20121;-78
2021/12/08 05:23:23;;;;;;;8.73;2.00;;;;;;;4.81;86.52;99412.59;5035828;28;20083;-78
2021/12/08 05:25:49;;;;;;;10.02;1.98;;;;;;;4.83;86.08;99416.06;5033587;28;20221;-78
2021/12/08 05:28:19;;;;;;;12.57;2.75;;;;;;;4.84;86.30;99412.66;5032231;28;20029;-78
2021/12/08 05:30:50;;;;;;;8.65;1.98;;;;;;;4.84;86.19;99412.66;5036279;28;20100;-78
2021/12/08 05:33:16;;;;;;;13.45;1.95;;;;;;;4.84;86.07;99417.81;5034266;28;20188;-78
2021/12/08 05:35:44;;;;;;;7.45;2.22;;;;;;;4.83;86.15;99411.75;5035374;28;20037;-78
2021/12/08 05:38:10;;;;;;;8.32;2.13;;;;;;;4.84;85.91;99417.81;5025729;28;20057;-78
2021/12/08 05:40:40;;;;;;;11.82;1.90;;;;;;;4.82;85.67;99419.47;5035420;28;20021;-77
2021/12/08 05:43:07;;;;;;;7.32;1.88;;;;;;;4.80;85.46;99427.19;5036800;28;20029;-78
2021/12/08 05:45:33;;;;;;;12.45;1.92;;;;;;;4.81;86.38;99434.09;5038211;28;20035;-78
2021/12/08 05:47:59;;;;;;;9.70;2.13;;;;;;;4.79;86.17;99443.50;5035831;28;20272;-78
2021/12/08 05:50:41;;;;;;;10.88;2.03;;;;;;;4.81;86.18;99430.66;5040343;28;20025;-78
2021/12/08 05:53:07;;;;;;;9.85;2.10;;;;;;;4.82;86.28;99447.84;5040307;28;20029;-78
2021/12/08 05:55:33;;;;;;;8.80;2.13;;;;;;;4.81;85.91;99430.66;5063047;28;20056;-78
2021/12/08 05:57:59;;;;;;;12.00;2.78;;;;;;;4.79;86.17;99429.72;5068463;28;20027;-78
2021/12/08 06:00:34;;;;;;;15.68;3.65;;;;;;;4.79;86.21;99434.88;5039743;28;20075;-78
2021/12/08 06:03:00;;;;;;;12.63;2.53;;;;;;;4.80;85.59;99427.19;5055253;28;20064;-78
2021/12/08 06:05:27;;;;;;;10.48;2.60;;;;;;;4.79;85.95;99437.47;5031410;28;20284;-78
2021/12/08 06:07:53;;;;;;;13.23;2.72;;;;;;;4.76;85.56;99447.72;5071618;28;20171;-78
2021/12/08 06:10:25;;;;;;;12.75;2.00;;;;;;;4.75;85.71;99454.59;5034387;28;20113;-78
2021/12/08 06:12:51;;;;;;;14.05;2.42;;;;;;;4.73;85.86;99451.09;5034601;28;20058;-78
2021/12/08 06:15:18;;;;;;;11.52;2.80;;;;;;;4.72;85.88;99445.91;5033095;28;20207;-78
2021/12/08 06:17:43;;;;;;;17.13;2.63;;;;;;;4.70;85.81;99454.47;5038395;28;20029;-78
2021/12/08 06:20:11;;;;;;;14.85;2.83;;;;;;;4.69;86.13;99457.91;5033880;28;20021;-78
2021/12/08 06:22:39;;;;;;;14.95;2.70;;;;;;;4.70;85.68;99456.19;5039128;28;20017;-78
2021/12/08 06:25:06;;;;;;;11.30;2.90;;;;;;;4.68;85.85;99466.47;5040177;28;20220;-78
2021/12/08 06:27:32;;;;;;;14.18;2.75;;;;;;;4.68;85.65;99473.34;5036819;28;20042;-78
2021/12/08 06:29:57;;;;;;;14.07;3.55;;;;;;;4.66;85.60;99468.16;5039484;28;20328;-78
2021/12/08 06:32:22;;;;;;;14.00;2.55;;;;;;;4.65;85.65;99474.13;5034375;28;20049;-78
2021/12/08 06:34:52;;;;;;;15.85;2.92;;;;;;;4.64;85.70;99477.53;5037775;28;20025;-78
2021/12/08 06:37:24;;;;;;;12.07;2.85;;;;;;;4.63;85.44;99480.94;5033467;28;20085;-78
2021/12/08 06:40:08;;;;;;;15.80;2.78;;;;;;;4.62;85.37;99473.16;5040127;28;20117;-78
2021/12/08 06:42:37;;;;;;;11.10;2.20;;;;;;;4.61;85.31;99484.34;5033445;28;20038;-78
2021/12/08 06:45:06;;;;;;;;;;;;;;;4.63;86.22;99480.06;5040443;28;20195;-78
2021/12/08 06:47:33;;;;;;;10.73;2.30;;;;;;;4.59;85.06;99481.72;5036613;28;19909;-78
2021/12/08 06:50:01;;;;;;;12.93;2.70;;;;;;;4.60;84.60;99480.00;5039274;28;20321;-78
2021/12/08 06:52:38;;;;;;;14.63;2.72;;;;;;;4.55;84.48;99479.91;5036229;28;20176;-78
2021/12/08 06:55:17;;;;;;;9.80;2.35;;;;;;;4.52;84.79;99487.56;5037510;28;20276;-78
2021/12/08 06:57:48;;;;;;;12.77;2.33;;;;;;;4.49;84.79;99490.91;5038441;28;20278;-78
2021/12/08 07:00:23;;;;;;;13.80;2.90;;;;;;;4.47;85.03;99491.72;5066141;27;20105;-78
2021/12/08 07:03:06;;;;;;;13.98;2.65;;;;;;;4.44;85.05;99479.59;5036253;28;20034;-78
2021/12/08 07:06:03;;;;;;;15.00;2.72;;;;;;;4.44;85.12;99494.22;5055928;28;20025;-78
2021/12/08 07:08:19;;;;;;;12.00;2.20;;;;;;;4.40;84.78;99498.41;5039473;28;20093;-78
2021/12/08 07:10:46;;;;;;;14.73;2.58;;;;;;;4.38;85.04;99504.38;5028534;28;20691;-78
2021/12/08 07:13:16;;;;;;;9.70;2.72;;;;;;;4.34;85.07;99514.59;5040158;28;20026;-78
2021/12/08 07:15:54;;;;;;;13.93;2.30;;;;;;;4.33;85.25;99525.75;5040329;28;20278;-78
2021/12/08 07:18:39;;;;;;;13.43;2.22;;;;;;;4.27;85.31;99523.00;5028258;28;20021;-78
2021/12/08 07:21:09;;;;;;;13.75;2.45;;;;;;;4.25;85.02;99526.38;5055540;28;20215;-78
2021/12/08 07:23:45;;;;;;;13.43;2.38;;;;;;;4.22;85.33;99524.56;5036197;28;20102;-78
2021/12/08 07:26:16;;;;;;;13.07;2.85;;;;;;;4.20;85.50;99527.94;5038655;28;20032;-78
2021/12/08 07:28:42;;;;;;;13.73;2.88;;;;;;;4.19;85.21;99550.28;5034601;28;20093;-78
2021/12/08 07:31:15;;;;;;;10.88;2.20;;;;;;;4.17;85.18;99551.91;5035750;28;20033;-78
2021/12/08 07:33:42;;;;;;;12.93;2.17;;;;;;;4.16;85.07;99551.06;5035582;28;20123;-78
2021/12/08 07:36:14;;;;;;;9.13;2.05;;;;;;;4.15;85.29;99551.00;5040364;28;20175;-78
2021/12/08 07:38:39;;;;;;;9.88;2.60;;;;;;;4.10;85.46;99558.63;5039703;28;20029;-78
2021/12/08 07:41:19;;;;;;;12.13;2.20;;;;;;;4.10;85.72;99561.19;5038388;28;20025;-78
2021/12/08 07:43:50;;;;;;;16.27;2.60;;;;;;;4.09;85.58;99576.63;5029189;28;20188;-78
2021/12/08 07:46:38;;;;;;;8.18;2.00;;;;;;;4.08;85.84;99573.16;5032351;28;20037;-78
2021/12/08 07:49:11;;;;;;;17.38;3.05;;;;;;;4.10;85.78;99576.66;5027718;28;20149;-78
2021/12/08 07:51:50;;;;;;;13.63;2.13;;;;;;;4.09;85.88;99580.06;5067452;28;20037;-78
2021/12/08 07:54:17;;;;;;;16.27;2.35;;;;;;;4.12;85.58;99574.13;5029372;28;20022;-78
2021/12/08 07:56:47;;;;;;;10.43;2.33;;;;;;;4.12;85.82;99577.56;5032068;28;20033;-78
2021/12/08 07:59:15;;;;;;;11.60;2.15;;;;;;;4.13;85.65;99581.03;5032754;28;20021;-78
2021/12/08 08:01:45;;;;;;;10.50;2.45;;;;;;;4.14;85.57;99577.59;5052339;28;20030;-78
2021/12/08 08:04:14;;;;;;;12.77;2.80;;;;;;;4.15;85.54;99563.91;5035416;28;20225;-78
2021/12/08 08:06:43;;;;;;;9.23;2.10;;;;;;;4.17;85.40;99564.81;5029599;28;20037;-78
2021/12/08 08:09:14;;;;;;;14.00;2.53;;;;;;;4.17;85.41;99582.84;5035387;28;20022;-78
2021/12/08 08:11:44;;;;;;;12.07;2.80;;;;;;;4.19;85.27;99586.38;5034911;28;20291;-78
2021/12/08 08:14:12;;;;;;;8.50;2.30;;;;;;;4.20;85.05;99574.34;5034123;28;20061;-78
2021/12/08 08:16:39;;;;;;;9.55;2.28;;;;;;;4.21;84.83;99584.69;5035081;28;21583;-78
2021/12/08 08:19:12;;;;;;;12.82;2.22;;;;;;;4.21;84.80;99589.84;5036918;28;20025;-78
2021/12/08 08:21:42;;;;;;;11.00;2.70;;;;;;;4.23;84.96;99588.19;5036781;28;20029;-77
2021/12/08 08:24:08;;;;;;;13.95;3.17;;;;;;;4.22;84.83;99578.72;5034944;28;20045;-77
2021/12/08 08:26:35;;;;;;;16.30;2.78;;;;;;;4.24;84.08;99584.78;5029807;28;20065;-77
2021/12/08 08:29:00;;;;;;;13.60;3.10;;;;;;;4.26;84.55;99582.25;5032779;28;20097;-78
2021/12/08 08:31:34;;;;;;;15.57;3.00;;;;;;;4.29;84.20;99593.53;5032293;28;20098;-77
2021/12/08 08:34:00;;;;;;;10.85;2.80;;;;;;;4.32;83.69;99593.59;5064861;28;20268;-77
2021/12/08 08:36:30;;;;;;;13.27;2.97;;;;;;;4.32;83.59;99591.03;5052199;28;20116;-83
2021/12/08 08:39:20;;;;;;;10.30;2.80;;;;;;;4.35;84.28;99578.22;5037327;28;20029;-84
2021/12/08 08:41:51;;;;;;;9.02;2.38;;;;;;;4.38;83.18;99566.25;5033532;28;20060;-83
2021/12/08 08:44:24;;;;;;;13.25;2.65;;;;;;;4.42;83.35;99561.22;5037138;28;20040;-83
2021/12/08 08:46:51;;;;;;;13.13;2.75;;;;;;;4.46;83.05;99559.59;5068188;28;20021;-84
2021/12/08 08:49:21;;;;;;;10.73;2.95;;;;;;;4.46;82.87;99550.16;5038039;28;20100;-83
2021/12/08 08:52:00;;;;;;;15.23;2.90;;;;;;;4.49;82.83;99554.50;5035779;28;20032;-83
2021/12/08 08:54:31;;;;;;;9.30;2.70;;;;;;;4.50;83.03;99553.69;5036994;28;20179;-83
2021/12/08 08:57:03;;;;;;;14.88;3.13;;;;;;;4.51;82.69;99546.00;5035734;28;20027;-84
2021/12/08 08:59:34;;;;;;;11.25;3.10;;;;;;;4.53;82.36;99561.50;5039230;28;20279;-83
2021/12/08 09:02:08;;;;;;;12.05;3.53;;;;;;;4.55;82.43;99577.03;5037173;28;20108;-83
2021/12/08 09:04:41;;;;;;;14.98;3.05;;;;;;;4.56;82.10;99577.06;5067516;28;20029;-84
2021/12/08 09:07:12;;;;;;;12.02;2.85;;;;;;;4.60;81.91;99571.16;5035797;28;20040;-83
2021/12/08 09:09:42;;;;;;;9.90;2.60;;;;;;;4.63;82.18;99580.69;5069325;28;20036;-84
2021/12/08 09:12:10;;;;;;;16.00;3.15;;;;;;;4.67;81.77;99580.81;5036763;28;20314;-83
2021/12/08 09:14:42;;;;;;;13.38;2.65;;;;;;;4.72;81.22;99580.06;5037470;28;20303;-84
2021/12/08 09:17:21;;;;;;;14.57;3.30;;;;;;;4.76;82.02;99584.47;5034721;28;20171;-77
2021/12/08 09:20:01;;;;;;;12.27;3.10;;;;;;;4.76;81.23;99579.31;5036178;28;20209;-77
2021/12/08 09:22:34;;;;;;;10.48;2.70;;;;;;;4.74;81.29;99581.00;5037458;28;20028;-77
2021/12/08 09:25:19;;;;;;;7.80;2.50;;;;;;;4.75;81.93;99582.72;5033723;28;20029;-77
2021/12/08 09:27:51;;;;;;;8.10;3.05;;;;;;;4.75;81.52;99590.47;5034288;28;20029;-77
2021/12/08 09:30:31;;;;;;;8.57;2.40;;;;;;;4.75;81.55;99600.78;5033831;28;20052;-78
2021/12/08 09:33:01;;;;;;;13.88;2.95;;;;;;;4.75;81.46;99604.25;5032604;28;20038;-66
2021/12/08 09:35:26;;;;;;;;;;;;;;;4.80;83.10;99609.53;5042500;28;20018;-66
2021/12/08 09:38:12;;;;;;;10.40;2.45;;;;;;;4.80;82.14;99623.31;5042052;28;19921;-66
2021/12/08 09:41:01;;;;;;;11.00;2.30;;;;;;;4.82;81.49;99615.59;5039644;28;20033;-66
2021/12/08 09:43:37;;;;;;;10.00;2.50;;;;;;;4.84;81.78;99607.06;5037789;28;20169;-66
2021/12/08 09:46:10;;;;;;;9.35;2.75;;;;;;;4.85;81.29;99597.63;5042387;28;20029;-66
2021/12/08 09:48:41;;;;;;;10.30;2.63;;;;;;;4.86;81.29;99604.53;5042713;28;20029;-66
2021/12/08 09:51:07;;;;;;;13.77;2.75;;;;;;;4.88;81.44;99602.84;5037871;28;20076;-65
2021/12/08 09:53:35;;;;;;;11.75;2.95;;;;;;;4.90;82.01;99602.91;5041757;28;20207;-66
2021/12/08 09:56:01;;;;;;;12.27;2.90;;;;;;;4.91;81.05;99590.06;5041961;28;20047;-65
2021/12/08 09:58:27;;;;;;;9.80;2.50;;;;;;;4.93;80.85;99592.69;5040068;28;20053;-66
2021/12/08 10:00:56;;;;;;;9.35;2.80;;;;;;;4.94;81.24;99594.41;5039427;28;20022;-66
2021/12/08 10:03:22;;;;;;;9.50;2.88;;;;;;;4.96;81.46;99587.59;5041470;28;20021;-66
2021/12/08 10:05:48;;;;;;;7.82;2.72;;;;;;;4.97;81.44;99579.88;5041682;28;20045;-66
2021/12/08 10:08:13;;;;;;;14.02;2.72;;;;;;;5.00;81.19;99584.25;5074360;28;20100;-66
2021/12/08 10:10:41;;;;;;;9.88;2.70;;;;;;;5.02;80.81;99580.00;5040157;28;20108;-66
2021/12/08 10:13:07;;;;;;;14.23;3.13;;;;;;;5.02;80.97;99573.09;5041750;28;20256;-66
2021/12/08 10:15:33;;;;;;;9.85;2.42;;;;;;;5.03;80.76;99572.28;5041542;28;20090;-66
2021/12/08 10:17:59;;;;;;;11.75;2.88;;;;;;;5.05;81.01;99562.88;5040406;28;20280;-66
2021/12/08 10:20:30;;;;;;;12.25;4.18;;;;;;;5.07;81.15;99560.34;5041746;28;20018;-66
2021/12/08 10:23:14;;;;;;;10.18;2.88;;;;;;;5.12;80.50;99555.28;5042116;28;20307;-66
2021/12/08 10:26:01;;;;;;;11.18;2.80;;;;;;;5.13;80.55;99559.63;5041795;28;20036;-66
2021/12/08 10:28:31;;;;;;;12.68;2.97;;;;;;;5.14;81.14;99556.19;5030630;28;20036;-66
2021/12/08 10:31:06;;;;;;;11.43;2.92;;;;;;;5.16;80.94;99560.56;5040762;28;20044;-66
2021/12/08 10:36:45;;;;;;;9.93;2.38;;;;;;;5.18;80.74;99547.69;5034072;28;20034;-66
2021/12/08 10:39:31;;;;;;;13.98;2.92;;;;;;;5.20;80.82;99548.59;5044858;28;20053;-66
2021/12/08 10:42:17;;;;;;;10.77;2.70;;;;;;;5.22;80.49;99544.34;5042343;28;20088;-66
2021/12/08 10:44:50;;;;;;;10.43;2.50;;;;;;;5.23;79.59;99539.22;5042084;28;20075;-66
2021/12/08 10:47:17;;;;;;;9.77;2.50;;;;;;;5.25;79.48;99539.25;5041068;28;20049;-66
2021/12/08 10:55:05;;;;;;;11.95;2.78;;;;;;;5.31;79.80;99554.88;5044982;28;20036;-66
2021/12/08 10:57:37;;;;;;;9.63;2.60;;;;;;;5.31;80.50;99541.97;5044403;28;20033;-66
2021/12/08 11:00:10;;;;;;;10.48;2.65;;;;;;;5.32;79.97;99548.88;5043485;28;20029;-65
2021/12/08 11:03:00;;;;;;;9.30;2.30;;;;;;;5.34;80.50;99547.19;5043600;28;20080;-66
2021/12/08 11:05:25;;;;;;;10.05;2.90;;;;;;;5.37;79.91;99564.47;5039624;28;20095;-66
2021/12/08 11:08:14;;;;;;;9.27;2.58;;;;;;;5.38;79.85;99569.69;5044588;28;20271;-66
2021/12/08 11:10:46;;;;;;;9.30;2.65;;;;;;;5.42;79.94;99580.09;5044150;28;20033;-66
2021/12/08 11:13:14;;;;;;;11.93;2.95;;;;;;;5.44;79.30;99586.19;5043246;28;20214;-66
2021/12/08 11:15:41;;;;;;;10.95;2.83;;;;;;;5.48;79.48;99591.44;5043766;28;20021;-66
2021/12/08 11:18:07;;;;;;;9.35;2.55;;;;;;;5.52;79.43;99601.03;5044189;28;20160;-66
2021/12/08 11:20:34;;;;;;;7.95;2.67;;;;;;;5.56;79.87;99604.53;5044306;28;20060;-66
2021/12/08 11:23:05;;;;;;;11.20;2.95;;;;;;;5.61;79.29;99610.72;5042429;28;20149;-66
2021/12/08 11:25:37;;;;;;;11.00;2.92;;;;;;;5.64;79.32;99613.34;5043705;28;20029;-66
2021/12/08 11:28:29;;;;;;;10.27;2.83;;;;;;;5.69;79.87;99621.22;5044428;28;20026;-65
2021/12/08 11:31:03;;;;;;;10.38;3.33;;;;;;;5.69;79.08;99616.94;5040574;28;20033;-66
2021/12/08 11:33:29;;;;;;;12.35;3.42;;;;;;;5.69;78.95;99619.53;5043767;28;20295;-66
2021/12/08 11:36:13;;;;;;;8.05;2.85;;;;;;;5.70;79.50;99621.25;5042197;28;20045;-79
2021/12/08 11:38:40;;;;;;;7.80;3.28;;;;;;;5.72;78.56;99624.75;5067481;28;20033;-76
2021/12/08 11:41:29;;;;;;;9.75;3.35;;;;;;;5.74;79.75;99624.78;5030936;28;20148;-77
2021/12/08 11:43:56;;;;;;;8.63;2.72;;;;;;;5.73;79.10;99634.22;5034050;28;20113;-75
2021/12/08 11:46:24;;;;;;;11.57;3.72;;;;;;;5.74;79.44;99645.47;5037299;28;20065;-75
2021/12/08 11:49:08;;;;;;;7.78;3.05;;;;;;;5.73;79.30;99643.72;5037965;28;20247;-76
2021/12/08 11:51:49;;;;;;;14.10;3.28;;;;;;;5.74;79.64;99632.53;5035337;28;20041;-65
2021/12/08 11:54:23;;;;;;;7.50;2.95;;;;;;;5.76;79.21;99641.19;5037501;28;20194;-65
2021/12/08 11:56:48;;;;;;;9.65;3.17;;;;;;;5.75;79.03;99645.50;5042629;28;20202;-65
2021/12/08 11:59:14;;;;;;;10.35;3.17;;;;;;;5.77;79.21;99655.00;5043878;28;20275;-65
2021/12/08 12:01:40;;;;;;;9.95;3.20;;;;;;;5.77;79.26;99650.72;5040243;28;20080;-65
2021/12/08 12:04:09;;;;;;;10.02;2.92;;;;;;;5.74;78.90;99654.09;5038766;28;20034;-65
2021/12/08 12:06:35;;;;;;;7.90;3.03;;;;;;;5.75;78.80;99661.00;5035082;28;20044;-65
2021/12/08 12:09:03;;;;;;;10.20;3.00;;;;;;;5.77;79.73;99663.63;5043487;28;20036;-65
2021/12/08 12:11:30;;;;;;;7.13;2.90;;;;;;;5.78;79.91;99670.56;5043027;28;20021;-65
2021/12/08 12:13:57;;;;;;;9.48;3.00;;;;;;;5.79;79.55;99672.28;5043115;28;20025;-65
2021/12/08 12:16:23;;;;;;;11.07;3.53;;;;;;;5.80;78.60;99673.16;5043181;28;20261;-65
2021/12/08 12:18:52;;;;;;;10.65;3.17;;;;;;;5.81;77.69;99685.25;5043573;28;20329;-65
2021/12/08 12:21:33;;;;;;;9.73;3.45;;;;;;;5.79;78.30;99684.34;5042285;28;20021;-65
2021/12/08 12:24:16;;;;;;;12.15;3.00;;;;;;;5.78;79.18;99692.91;5034679;28;20228;-65
2021/12/08 12:27:26;;;;;;;12.20;3.00;;;;;;;5.79;79.79;99700.72;5032088;28;20029;-65